METAR Data
IDs: Format: Raw Decoded Include TAF

Data at: 1353 UTC 26 Feb 2021

EDHL 261320Z 24010KT 220V280 9999 BKN027 10/04 Q1029